createdAt,value
2023-04-01T00:00:24.077Z,8.79
2023-04-01T00:03:28.242Z,8.81
2023-04-01T00:06:30.819Z,8.73
2023-04-01T00:09:33.039Z,8.60
2023-04-01T00:12:35.729Z,8.61
2023-04-01T00:15:38.061Z,8.65
2023-04-01T00:18:40.974Z,8.75
2023-04-01T00:21:43.134Z,8.79
2023-04-01T00:24:45.335Z,8.77
2023-04-01T00:27:47.757Z,8.87
2023-04-01T00:30:49.928Z,8.74
2023-04-01T00:33:52.823Z,8.58
2023-04-01T00:36:55.147Z,8.63
2023-04-01T00:39:58.078Z,8.65
2023-04-01T00:43:00.721Z,8.45
2023-04-01T00:46:03.170Z,8.35
2023-04-01T00:49:05.456Z,8.44
2023-04-01T00:52:09.707Z,8.42
2023-04-01T00:55:12.557Z,8.36
2023-04-01T00:58:18.511Z,8.44
2023-04-01T01:01:23.083Z,8.28
2023-04-01T01:04:31.477Z,8.28
2023-04-01T01:07:56.798Z,8.32
2023-04-01T01:10:58.986Z,8.27
2023-04-01T01:14:39.645Z,8.27
2023-04-01T01:17:44.365Z,8.30
2023-04-01T01:21:06.293Z,8.33
2023-04-01T01:24:20.365Z,8.30
2023-04-01T01:27:23.091Z,8.39
2023-04-01T01:30:49.424Z,8.50
2023-04-01T01:34:13.084Z,8.36
2023-04-01T01:37:18.052Z,8.66
2023-04-01T01:40:21.196Z,8.53
2023-04-01T01:43:25.891Z,8.43
2023-04-01T01:46:29.100Z,8.48
2023-04-01T01:49:32.827Z,8.48
2023-04-01T01:52:35.020Z,8.52
2023-04-01T01:55:39.263Z,8.51
2023-04-01T01:58:44.809Z,8.42
2023-04-01T02:01:52.721Z,8.42
2023-04-01T02:04:55.163Z,8.38
2023-04-01T02:08:07.737Z,8.51
2023-04-01T02:11:13.281Z,8.55
2023-04-01T02:14:19.878Z,8.44
2023-04-01T02:17:25.026Z,8.63
2023-04-01T02:20:28.407Z,8.61
2023-04-01T02:23:31.001Z,8.66
2023-04-01T02:26:33.248Z,8.75
2023-04-01T02:29:35.470Z,8.84
2023-04-01T02:32:39.503Z,8.89
2023-04-01T02:35:41.785Z,8.92
2023-04-01T02:38:45.991Z,8.92
2023-04-01T02:41:48.200Z,9.05
2023-04-01T02:44:50.484Z,9.04
2023-04-01T02:47:52.687Z,9.01
2023-04-01T02:50:55.294Z,9.07
2023-04-01T02:53:57.475Z,9.01
2023-04-01T02:56:59.703Z,8.97
2023-04-01T03:00:02.035Z,8.84
2023-04-01T03:03:05.257Z,8.91
2023-04-01T03:06:09.255Z,8.80
2023-04-01T03:09:11.644Z,8.73
2023-04-01T03:12:13.877Z,8.61
2023-04-01T03:15:16.239Z,8.57
2023-04-01T03:18:18.788Z,8.54
2023-04-01T03:21:23.928Z,8.44
2023-04-01T03:24:26.148Z,8.48
2023-04-01T03:27:28.389Z,8.52
2023-04-01T03:30:32.258Z,8.57
2023-04-01T03:33:34.698Z,8.62
2023-04-01T03:36:37.124Z,8.66
2023-04-01T03:39:39.434Z,8.63
2023-04-01T03:42:41.676Z,8.48
2023-04-01T03:45:51.185Z,8.49
2023-04-01T03:48:53.415Z,8.38
2023-04-01T03:51:55.738Z,8.36
2023-04-01T03:54:57.936Z,8.23
2023-04-01T03:58:02.670Z,8.28
2023-04-01T04:01:14.826Z,8.24
2023-04-01T04:04:17.081Z,8.11
2023-04-01T04:07:19.282Z,7.93
2023-04-01T04:10:23.318Z,7.91
2023-04-01T04:13:25.527Z,7.95
2023-04-01T04:16:27.760Z,7.90
2023-04-01T04:19:34.968Z,7.91
2023-04-01T04:22:37.445Z,7.77
2023-04-01T04:25:39.753Z,7.78
2023-04-01T04:28:41.975Z,7.65
2023-04-01T04:31:44.689Z,7.72
2023-04-01T04:34:46.938Z,7.70
2023-04-01T04:37:49.086Z,7.58
2023-04-01T04:40:51.351Z,7.60
2023-04-01T04:43:55.983Z,7.63
2023-04-01T04:46:58.555Z,7.70
2023-04-01T04:50:01.236Z,7.78
2023-04-01T04:53:04.123Z,7.86
2023-04-01T04:56:06.477Z,7.82
2023-04-01T04:59:08.684Z,7.78
2023-04-01T05:02:11.033Z,7.84
2023-04-01T05:05:13.272Z,7.89
2023-04-01T05:08:15.488Z,7.72
2023-04-01T05:11:19.311Z,7.86
2023-04-01T05:14:21.457Z,7.98
2023-04-01T05:17:23.718Z,8.22
2023-04-01T05:20:25.971Z,8.51
2023-04-01T05:23:28.188Z,8.80
2023-04-01T05:26:30.541Z,9.06
2023-04-01T05:29:33.658Z,9.33
2023-04-01T05:32:35.903Z,9.28
2023-04-01T05:35:38.346Z,9.29
2023-04-01T05:38:40.747Z,9.48
2023-04-01T05:41:42.893Z,9.58
2023-04-01T05:44:45.059Z,9.68
2023-04-01T05:47:47.263Z,9.65
2023-04-01T05:50:49.432Z,9.86
2023-04-01T05:53:51.730Z,10.05
2023-04-01T05:56:54.017Z,10.31
2023-04-01T05:59:56.288Z,10.53
2023-04-01T06:03:01.385Z,10.68
2023-04-01T06:06:04.042Z,10.74
2023-04-01T06:09:16.185Z,10.84
2023-04-01T06:12:39.876Z,10.97
2023-04-01T06:15:52.430Z,11.17
2023-04-01T06:19:06.940Z,11.26
2023-04-01T06:22:34.195Z,11.00
2023-04-01T06:25:48.427Z,11.14
2023-04-01T06:28:57.795Z,10.97
2023-04-01T06:32:26.503Z,11.05
2023-04-01T06:35:28.685Z,11.48
2023-04-01T06:38:30.825Z,11.49
2023-04-01T06:41:49.324Z,11.71
2023-04-01T06:45:03.250Z,11.70
2023-04-01T06:48:17.302Z,11.67
2023-04-01T06:51:31.858Z,11.76
2023-04-01T06:54:42.232Z,11.69
2023-04-01T06:57:49.670Z,11.74
2023-04-01T07:00:58.772Z,11.83
2023-04-01T07:04:06.271Z,11.51
2023-04-01T07:07:43.201Z,11.42
2023-04-01T07:11:12.112Z,11.45
2023-04-01T07:14:29.989Z,11.59
2023-04-01T07:17:35.001Z,11.71
2023-04-01T07:20:38.411Z,11.76
2023-04-01T07:23:44.046Z,11.73
2023-04-01T07:26:46.945Z,11.83
2023-04-01T07:29:50.088Z,11.99
2023-04-01T07:33:05.912Z,11.74
2023-04-01T07:36:19.130Z,11.72
2023-04-01T07:39:38.741Z,11.61
2023-04-01T07:42:57.426Z,11.69
2023-04-01T07:46:43.106Z,11.63
2023-04-01T07:50:01.137Z,11.86
2023-04-01T07:53:16.140Z,12.28
2023-04-01T07:56:56.606Z,12.14
2023-04-01T08:00:27.895Z,12.19
2023-04-01T08:03:45.504Z,12.04
2023-04-01T08:07:25.154Z,11.93
2023-04-01T08:10:36.166Z,11.89
2023-04-01T08:14:05.401Z,11.81
2023-04-01T08:17:17.772Z,11.75
2023-04-01T08:20:35.316Z,11.69
2023-04-01T08:23:46.147Z,11.41
2023-04-01T08:26:51.319Z,11.47
2023-04-01T08:30:16.738Z,11.49
2023-04-01T08:33:24.771Z,11.58
2023-04-01T08:36:32.966Z,11.42
2023-04-01T08:39:42.234Z,11.33
2023-04-01T08:42:44.334Z,11.36
2023-04-01T08:46:03.786Z,11.25
2023-04-01T08:49:18.132Z,11.18
2023-04-01T08:52:58.257Z,11.41
2023-04-01T08:56:21.921Z,11.35
2023-04-01T08:59:42.331Z,11.35
2023-04-01T09:03:29.478Z,11.51
2023-04-01T09:06:50.751Z,11.78
2023-04-01T09:09:59.166Z,11.84
2023-04-01T09:13:08.269Z,11.85
2023-04-01T09:16:22.624Z,12.18
2023-04-01T09:20:06.432Z,12.26
2023-04-01T09:23:32.710Z,12.18
2023-04-01T09:27:02.272Z,12.29
2023-04-01T09:30:35.459Z,12.06
2023-04-01T09:34:16.344Z,12.21
2023-04-01T09:37:40.831Z,12.47
2023-04-01T09:40:45.890Z,12.49
2023-04-01T09:44:02.642Z,12.58
2023-04-01T09:47:47.444Z,12.73
2023-04-01T09:50:58.582Z,13.09
2023-04-01T09:54:22.444Z,13.27
2023-04-01T09:58:03.098Z,13.26
2023-04-01T10:01:42.061Z,13.60
2023-04-01T10:04:56.153Z,12.97
2023-04-01T10:08:19.817Z,13.03
2023-04-01T10:11:36.929Z,13.16
2023-04-01T10:14:57.920Z,12.89
2023-04-01T10:18:06.032Z,12.62
2023-04-01T10:21:19.824Z,12.71
2023-04-01T10:25:03.195Z,12.65
2023-04-01T10:28:36.818Z,12.36
2023-04-01T10:32:20.404Z,12.19
2023-04-01T10:35:50.428Z,12.04
2023-04-01T10:39:09.981Z,11.99
2023-04-01T10:42:49.832Z,11.91
2023-04-01T10:46:01.740Z,11.75
2023-04-01T11:04:56.733Z,12.14
2023-04-01T11:08:26.699Z,12.18
2023-04-01T11:11:35.776Z,12.21
2023-04-01T11:15:25.819Z,12.26
2023-04-01T11:18:49.167Z,12.33
2023-04-01T11:22:10.457Z,12.72
2023-04-01T11:25:49.793Z,12.87
2023-04-01T11:29:10.481Z,13.34
2023-04-01T11:32:24.797Z,13.42
2023-04-01T11:36:09.115Z,13.25
2023-04-01T11:39:14.697Z,13.00
2023-04-01T11:42:34.205Z,12.81
2023-04-01T11:45:37.399Z,12.82
2023-04-01T11:49:02.043Z,13.33
2023-04-01T11:52:13.453Z,13.30
2023-04-01T11:55:34.810Z,13.63
2023-04-01T11:59:09.451Z,13.60
2023-04-01T12:02:29.741Z,13.70
2023-04-01T12:05:44.933Z,13.78
2023-04-01T12:08:58.099Z,13.73
2023-04-01T12:12:32.177Z,13.60
2023-04-01T12:15:52.962Z,13.38
2023-04-01T12:18:59.534Z,13.18
2023-04-01T12:22:20.900Z,13.16
2023-04-01T12:25:44.919Z,13.43
2023-04-01T12:29:13.809Z,13.51
2023-04-01T12:32:46.883Z,13.56
2023-04-01T12:36:12.661Z,13.27
2023-04-01T12:39:14.975Z,13.52
2023-04-01T12:42:47.581Z,13.72
2023-04-01T12:45:58.990Z,13.57
2023-04-01T12:49:18.927Z,13.47
2023-04-01T12:52:31.734Z,13.65
2023-04-01T12:55:40.052Z,13.92
2023-04-01T12:59:10.991Z,14.27
2023-04-01T13:02:19.099Z,14.35
2023-04-01T13:05:58.942Z,14.40
2023-04-01T13:09:35.543Z,14.33
2023-04-01T13:12:46.186Z,14.18
2023-04-01T13:15:53.913Z,14.32
2023-04-01T13:19:08.700Z,14.42
2023-04-01T13:22:59.474Z,14.27
2023-04-01T13:26:14.282Z,14.15
2023-04-01T13:29:25.072Z,14.20
2023-04-01T13:32:43.959Z,14.31
2023-04-01T13:35:56.178Z,14.35
2023-04-01T13:39:13.635Z,14.16
2023-04-01T13:42:29.609Z,14.11
2023-04-01T13:45:53.459Z,14.33
2023-04-01T13:49:14.180Z,14.44
2023-04-01T13:52:52.918Z,14.85
2023-04-01T13:56:04.008Z,14.66
2023-04-01T13:59:18.153Z,14.28
2023-04-01T14:02:41.951Z,14.39
2023-04-01T14:05:50.263Z,14.39
2023-04-01T14:09:11.304Z,14.29
2023-04-01T14:12:19.864Z,14.28
2023-04-01T14:15:30.986Z,14.41
2023-04-01T14:18:51.664Z,14.44
2023-04-01T14:22:32.805Z,14.29
2023-04-01T14:26:16.301Z,14.09
2023-04-01T14:29:37.212Z,14.28
2023-04-01T14:33:01.132Z,14.21
2023-04-01T14:36:25.073Z,14.07
2023-04-01T14:40:04.654Z,14.17
2023-04-01T14:43:23.114Z,14.44
2023-04-01T14:46:43.677Z,14.58
2023-04-01T14:49:52.223Z,14.64
2023-04-01T14:53:08.181Z,14.59
2023-04-01T14:56:10.406Z,14.50
2023-04-01T14:59:28.794Z,14.64
2023-04-01T15:03:04.875Z,14.74
2023-04-01T15:06:40.558Z,14.59
2023-04-01T15:09:48.303Z,14.63
2023-04-01T15:12:59.564Z,14.63
2023-04-01T15:16:32.883Z,14.35
2023-04-01T15:20:12.625Z,14.27
2023-04-01T15:23:57.556Z,14.19
2023-04-01T15:27:14.163Z,14.20
2023-04-01T15:30:32.144Z,13.83
2023-04-01T15:34:13.211Z,13.51
2023-04-01T15:37:37.220Z,13.37
2023-04-01T15:41:18.151Z,13.04
2023-04-01T15:44:43.570Z,13.13
2023-04-01T15:47:53.958Z,12.99
2023-04-01T15:51:03.830Z,12.97
2023-04-01T15:54:32.015Z,12.95
2023-04-01T15:57:47.506Z,12.96
2023-04-01T16:01:17.585Z,12.87
2023-04-01T16:04:34.074Z,12.88
2023-04-01T16:07:50.326Z,12.91
2023-04-01T16:11:13.706Z,12.86
2023-04-01T16:14:24.791Z,12.77
2023-04-01T16:17:35.933Z,12.85
2023-04-01T16:20:44.377Z,12.81
2023-04-01T16:23:59.365Z,12.82
2023-04-01T16:27:15.887Z,12.67
2023-04-01T16:30:34.615Z,12.64
2023-04-01T16:33:49.208Z,12.53
2023-04-01T16:37:15.054Z,12.60
2023-04-01T16:40:38.629Z,12.63
2023-04-01T16:43:47.432Z,12.58
2023-04-01T16:47:19.264Z,12.59
2023-04-01T16:50:40.319Z,12.49
2023-04-01T16:53:45.022Z,12.54
2023-04-01T16:57:02.650Z,12.52
2023-04-01T17:00:17.158Z,12.50
2023-04-01T17:03:33.636Z,12.50
2023-04-01T17:06:46.773Z,12.52
2023-04-01T17:10:08.018Z,12.40
2023-04-01T17:13:20.213Z,12.36
2023-04-01T17:16:26.247Z,12.33
2023-04-01T17:19:54.967Z,12.29
2023-04-01T17:23:31.840Z,12.28
2023-04-01T17:26:43.569Z,12.22
2023-04-01T17:30:01.019Z,12.17
2023-04-01T17:33:06.224Z,12.04
2023-04-01T17:36:12.651Z,12.07
2023-04-01T17:39:44.002Z,12.03
2023-04-01T17:43:12.966Z,11.93
2023-04-01T17:46:38.340Z,11.89
2023-04-01T17:49:51.149Z,11.85
2023-04-01T17:53:15.703Z,11.74
2023-04-01T17:56:22.710Z,11.73
2023-04-01T17:59:37.709Z,11.73
2023-04-01T18:03:08.038Z,11.81
2023-04-01T18:06:21.147Z,11.69
2023-04-01T18:09:39.633Z,11.60
2023-04-01T18:13:11.192Z,11.66
2023-04-01T18:16:38.390Z,11.63
2023-04-01T18:20:13.628Z,11.60
2023-04-01T18:23:28.756Z,11.62
2023-04-01T18:26:34.777Z,11.52
2023-04-01T18:30:23.327Z,11.47
2023-04-01T18:33:50.120Z,11.47
2023-04-01T18:37:03.362Z,11.37
2023-04-01T18:40:18.648Z,11.33
2023-04-01T18:43:57.167Z,11.17
2023-04-01T18:47:16.131Z,11.19
2023-04-01T18:50:35.490Z,11.20
2023-04-01T18:53:51.105Z,11.04
2023-04-01T18:57:14.316Z,11.05
2023-04-01T19:00:38.294Z,11.04
2023-04-01T19:03:53.087Z,11.00
2023-04-01T19:06:59.337Z,11.05
2023-04-01T19:10:08.261Z,11.03
2023-04-01T19:13:23.793Z,11.12
2023-04-01T19:16:47.585Z,11.04
2023-04-01T19:19:57.439Z,11.01
2023-04-01T19:23:47.934Z,10.98
2023-04-01T19:26:58.868Z,10.92
2023-04-01T19:30:16.370Z,10.84
2023-04-01T19:33:40.552Z,10.73
2023-04-01T19:37:05.453Z,10.82
2023-04-01T19:40:47.617Z,10.78
2023-04-01T19:44:04.754Z,10.83
2023-04-01T19:47:19.336Z,10.84
2023-04-01T19:50:36.384Z,10.88
2023-04-01T19:53:45.651Z,10.76
2023-04-01T19:56:47.788Z,10.80
2023-04-01T19:59:59.020Z,10.73
2023-04-01T20:03:27.511Z,10.68
2023-04-01T20:06:38.804Z,10.68
2023-04-01T20:09:44.034Z,10.55
2023-04-01T20:13:16.850Z,10.50
2023-04-01T20:16:19.678Z,10.36
2023-04-01T20:19:34.367Z,10.03
2023-04-01T20:22:45.187Z,9.97
2023-04-01T20:25:51.373Z,9.94
2023-04-01T20:29:12.916Z,9.58
2023-04-01T20:32:25.214Z,9.60
2023-04-01T20:35:53.126Z,9.61
2023-04-01T20:39:34.914Z,9.43
2023-04-01T20:42:48.822Z,9.29
2023-04-01T20:46:21.643Z,9.15
2023-04-01T20:49:48.583Z,9.03
2023-04-01T20:52:57.537Z,9.04
2023-04-01T20:56:15.448Z,8.84
2023-04-01T20:59:36.477Z,8.77
2023-04-01T21:03:00.516Z,8.73
2023-04-01T21:06:08.567Z,8.52
2023-04-01T21:09:41.498Z,8.40
2023-04-01T21:12:46.282Z,8.56
2023-04-01T21:15:54.521Z,8.47
2023-04-01T21:19:24.024Z,8.35
2023-04-01T21:22:38.160Z,8.45
2023-04-01T21:26:11.406Z,8.38
2023-04-01T21:29:16.738Z,8.26
2023-04-01T21:32:27.336Z,8.29
2023-04-01T21:35:37.662Z,8.23
2023-04-01T21:39:14.299Z,8.35
2023-04-01T21:42:38.005Z,7.92
2023-04-01T21:46:01.922Z,7.93
2023-04-01T21:49:25.721Z,7.86
2023-04-01T21:52:51.984Z,8.06
2023-04-01T21:56:21.872Z,7.96
2023-04-01T21:59:57.562Z,7.94
2023-04-01T22:03:41.160Z,7.89
2023-04-01T22:06:46.403Z,7.78
2023-04-01T22:09:54.377Z,7.67
2023-04-01T22:13:09.265Z,7.47
2023-04-01T22:16:22.450Z,7.68
2023-04-01T22:19:40.243Z,7.66
2023-04-01T22:23:00.983Z,7.71
2023-04-01T22:26:08.858Z,7.41
2023-04-01T22:29:42.904Z,7.49
2023-04-01T22:32:48.798Z,7.70
2023-04-01T22:35:50.937Z,7.61
2023-04-01T22:39:25.205Z,7.53
2023-04-01T22:42:35.542Z,7.69
2023-04-01T22:45:49.862Z,7.80
2023-04-01T22:49:10.559Z,7.60
2023-04-01T22:52:21.600Z,7.62
2023-04-01T22:55:27.106Z,7.41
2023-04-01T22:58:37.021Z,7.31
2023-04-01T23:01:46.813Z,7.24
2023-04-01T23:04:56.042Z,7.31
2023-04-01T23:08:36.303Z,7.36
2023-04-01T23:11:47.621Z,7.42
2023-04-01T23:15:12.057Z,7.36
2023-04-01T23:18:29.626Z,7.15
2023-04-01T23:21:46.226Z,7.05
2023-04-01T23:24:56.362Z,7.07
2023-04-01T23:28:10.747Z,6.80
2023-04-01T23:31:38.123Z,6.74
2023-04-01T23:34:40.605Z,6.72
2023-04-01T23:37:42.814Z,6.69
2023-04-01T23:40:45.708Z,6.96
2023-04-01T23:43:55.927Z,7.21
2023-04-01T23:46:58.669Z,7.43
2023-04-01T23:50:05.940Z,7.68
2023-04-01T23:53:18.536Z,7.78
2023-04-01T23:56:21.978Z,7.74
2023-04-01T23:59:31.740Z,7.78
